Time;durP1;ratioP1;P1;durP2;ratioP2;P2;SDS_P1;SDS_P2;PMS_P1;PMS_P2;Temp;Humidity;BMP_temperature;BMP_pressure;BME280_temperature;BME280_humidity;BME280_pressure;Samples;Min_cycle;Max_cycle;Signal;HPM_P1;HPM_P2
2023/04/20 00:01:03;;;;;;;4.95;1.98;;;;;;;;;;5070406;28;20249;-62
2023/04/20 00:03:29;;;;;;;4.93;2.17;;;;;;;;;;5070518;28;20671;-62
2023/04/20 00:05:54;;;;;;;5.07;1.80;;;;;;;;;;5069316;28;20206;-62
2023/04/20 00:08:19;;;;;;;4.93;1.98;;;;;;;;;;5070531;28;20700;-62
2023/04/20 00:10:44;;;;;;;4.05;2.10;;;;;;;;;;5089085;28;20294;-62
2023/04/20 00:13:10;;;;;;;6.45;2.20;;;;;;;;;;5090480;28;20214;-62
2023/04/20 00:15:35;;;;;;;4.70;2.05;;;;;;;;;;5081397;28;20217;-62
2023/04/20 00:18:00;;;;;;;5.13;2.10;;;;;;;;;;5069859;28;20661;-62
2023/04/20 00:20:26;;;;;;;5.53;2.03;;;;;;;;;;5079151;28;20233;-62
2023/04/20 00:22:51;;;;;;;7.35;2.42;;;;;;;;;;5080936;28;20202;-62
2023/04/20 00:25:17;;;;;;;6.32;2.50;;;;;;;;;;5068071;28;20221;-62
2023/04/20 00:27:43;;;;;;;7.85;2.65;;;;;;;;;;5060822;28;20654;-62
2023/04/20 00:30:08;;;;;;;4.30;2.35;;;;;;;;;;5079185;28;20210;-62
2023/04/20 00:32:34;;;;;;;6.38;2.40;;;;;;;;;;5075128;28;20210;-62
2023/04/20 00:34:59;;;;;;;6.35;2.28;;;;;;;;;;5052972;28;20217;-62
2023/04/20 00:37:25;;;;;;;7.45;2.83;;;;;;;;;;5052315;28;20275;-62
2023/04/20 00:39:50;;;;;;;6.82;2.42;;;;;;;;;;5074368;28;20266;-62
2023/04/20 00:42:16;;;;;;;4.57;2.20;;;;;;;;;;5079846;28;20407;-62
2023/04/20 00:44:41;;;;;;;6.95;2.70;;;;;;;;;;5078833;28;20217;-62
2023/04/20 00:47:06;;;;;;;7.43;2.70;;;;;;;;;;5071859;28;20218;-62
2023/04/20 00:49:31;;;;;;;5.88;2.40;;;;;;;;;;5061529;28;20213;-62
2023/04/20 00:51:57;;;;;;;5.50;2.30;;;;;;;;;;5078502;28;20216;-62
2023/04/20 00:54:22;;;;;;;9.18;2.80;;;;;;;;;;5078498;28;20711;-62
2023/04/20 00:56:48;;;;;;;6.65;2.50;;;;;;;;;;5053138;28;20843;-62
2023/04/20 00:59:13;;;;;;;4.47;2.40;;;;;;;;;;5052302;28;20249;-62
2023/04/20 01:01:38;;;;;;;6.97;2.80;;;;;;;;;;5071301;28;20197;-62
2023/04/20 01:04:03;;;;;;;6.70;2.80;;;;;;;;;;5080094;28;20924;-62
2023/04/20 01:06:29;;;;;;;8.38;2.58;;;;;;;;;;5065113;28;20214;-62
2023/04/20 01:08:54;;;;;;;7.47;2.65;;;;;;;;;;5060325;28;20215;-62
2023/04/20 01:11:20;;;;;;;4.05;2.55;;;;;;;;;;5059432;28;20657;-62
2023/04/20 01:13:45;;;;;;;6.18;2.63;;;;;;;;;;5077693;28;20582;-62
2023/04/20 01:16:10;;;;;;;5.03;2.55;;;;;;;;;;5071486;28;20258;-62
2023/04/20 01:18:43;;;;;;;7.15;2.90;;;;;;;;;;5069632;28;20242;-62
2023/04/20 01:21:09;;;;;;;6.63;3.08;;;;;;;;;;5088893;28;20206;-62
2023/04/20 01:23:35;;;;;;;5.17;2.93;;;;;;;;;;5089978;28;20217;-62
2023/04/20 01:26:04;;;;;;;4.77;2.63;;;;;;;;;;5069731;28;20210;-62
2023/04/20 01:28:30;;;;;;;5.45;2.90;;;;;;;;;;5068067;28;20226;-62
2023/04/20 01:30:55;;;;;;;7.90;2.90;;;;;;;;;;5069825;28;20300;-62
2023/04/20 01:33:20;;;;;;;7.03;3.10;;;;;;;;;;5069270;28;20249;-62
2023/04/20 01:35:47;;;;;;;6.03;2.70;;;;;;;;;;5069167;28;20272;-62
2023/04/20 01:38:16;;;;;;;4.85;2.65;;;;;;;;;;5069392;28;20210;-62
2023/04/20 01:40:41;;;;;;;4.35;2.80;;;;;;;;;;5069277;28;20218;-62
2023/04/20 01:43:07;;;;;;;5.20;2.97;;;;;;;;;;5069040;28;20214;-62
2023/04/20 01:45:32;;;;;;;6.35;3.17;;;;;;;;;;5070003;28;20207;-62
2023/04/20 01:47:57;;;;;;;6.95;2.83;;;;;;;;;;5073548;28;20245;-62
2023/04/20 01:50:23;;;;;;;5.97;3.03;;;;;;;;;;5069136;28;20222;-62
2023/04/20 01:52:48;;;;;;;5.03;2.83;;;;;;;;;;5071353;28;20210;-62
2023/04/20 01:55:13;;;;;;;7.18;2.78;;;;;;;;;;5089081;28;20268;-62
2023/04/20 01:57:39;;;;;;;6.43;2.90;;;;;;;;;;5058039;28;20572;-62
2023/04/20 02:00:04;;;;;;;5.67;2.70;;;;;;;;;;5050861;28;20731;-62
2023/04/20 02:02:30;;;;;;;5.07;2.92;;;;;;;;;;5051831;28;20680;-62
2023/04/20 02:04:55;;;;;;;4.97;2.92;;;;;;;;;;5059267;28;20237;-62
2023/04/20 02:07:20;;;;;;;6.23;2.70;;;;;;;;;;5059062;28;20245;-62
2023/04/20 02:09:46;;;;;;;6.35;2.92;;;;;;;;;;5059436;28;20227;-62
2023/04/20 02:12:11;;;;;;;7.13;2.90;;;;;;;;;;5058909;28;20216;-62
2023/04/20 02:14:36;;;;;;;5.05;2.95;;;;;;;;;;5059587;28;20682;-62
2023/04/20 02:17:02;;;;;;;5.57;2.95;;;;;;;;;;5059024;28;20219;-62
2023/04/20 02:19:27;;;;;;;8.02;3.08;;;;;;;;;;5072166;28;20489;-62
2023/04/20 02:21:52;;;;;;;4.87;2.90;;;;;;;;;;5069966;28;20210;-62
2023/04/20 02:24:17;;;;;;;5.28;3.00;;;;;;;;;;5069111;28;20217;-62
2023/04/20 02:26:43;;;;;;;6.60;3.15;;;;;;;;;;5059947;28;20584;-62
2023/04/20 02:29:08;;;;;;;6.03;2.95;;;;;;;;;;5062574;28;20297;-62
2023/04/20 02:31:33;;;;;;;7.28;3.45;;;;;;;;;;5062596;28;20329;-62
2023/04/20 02:33:59;;;;;;;4.63;3.27;;;;;;;;;;5077562;28;20250;-62
2023/04/20 02:36:24;;;;;;;6.93;3.40;;;;;;;;;;5062672;28;20578;-62
2023/04/20 02:38:49;;;;;;;8.68;3.05;;;;;;;;;;5081621;28;20221;-62
2023/04/20 02:41:15;;;;;;;5.72;3.22;;;;;;;;;;5080174;28;20216;-62
2023/04/20 02:43:40;;;;;;;7.43;3.40;;;;;;;;;;5075187;28;20212;-62
2023/04/20 02:46:06;;;;;;;5.63;3.28;;;;;;;;;;5074169;28;20383;-62
2023/04/20 02:48:31;;;;;;;8.27;3.40;;;;;;;;;;5057169;28;20580;-62
2023/04/20 02:50:56;;;;;;;5.18;2.88;;;;;;;;;;5062469;28;20218;-62
2023/04/20 02:53:22;;;;;;;6.65;3.00;;;;;;;;;;5061718;28;20211;-62
2023/04/20 02:55:47;;;;;;;8.02;3.40;;;;;;;;;;5062752;28;20332;-62
2023/04/20 02:58:12;;;;;;;6.32;2.92;;;;;;;;;;5069008;28;20658;-61
2023/04/20 03:00:38;;;;;;;5.32;3.10;;;;;;;;;;5071677;28;20237;-61
2023/04/20 03:03:03;;;;;;;5.55;3.30;;;;;;;;;;5071881;28;20440;-62
2023/04/20 03:05:28;;;;;;;7.03;3.55;;;;;;;;;;5077786;28;20259;-62
2023/04/20 03:07:55;;;;;;;7.68;3.35;;;;;;;;;;5092017;28;20252;-61
2023/04/20 03:10:20;;;;;;;7.55;3.50;;;;;;;;;;5076724;28;20309;-61
2023/04/20 03:12:46;;;;;;;5.87;3.03;;;;;;;;;;5071665;28;20336;-61
2023/04/20 03:15:11;;;;;;;7.73;3.47;;;;;;;;;;5071597;28;20210;-61
2023/04/20 03:17:36;;;;;;;9.20;3.35;;;;;;;;;;5085009;28;20210;-62
2023/04/20 03:20:02;;;;;;;4.97;3.35;;;;;;;;;;5060840;28;20218;-62
2023/04/20 03:22:27;;;;;;;5.45;3.15;;;;;;;;;;5062244;28;20214;-62
2023/04/20 03:24:52;;;;;;;11.35;3.53;;;;;;;;;;5059744;28;20632;-62
2023/04/20 03:27:18;;;;;;;7.45;3.53;;;;;;;;;;5073633;28;20343;-62
2023/04/20 03:29:43;;;;;;;5.07;3.15;;;;;;;;;;5073657;28;20497;-62
2023/04/20 03:32:08;;;;;;;10.35;3.05;;;;;;;;;;5076140;28;20206;-62
2023/04/20 03:34:33;;;;;;;6.65;3.38;;;;;;;;;;5060989;28;20215;-62
2023/04/20 03:36:59;;;;;;;5.25;3.40;;;;;;;;;;5061565;28;20210;-62
2023/04/20 03:39:24;;;;;;;7.95;3.30;;;;;;;;;;5080682;28;20608;-62
2023/04/20 03:41:50;;;;;;;6.10;3.10;;;;;;;;;;5081246;28;20872;-62
2023/04/20 03:44:15;;;;;;;7.97;2.97;;;;;;;;;;5081013;28;20305;-61
2023/04/20 03:46:41;;;;;;;6.65;3.10;;;;;;;;;;5076919;28;20206;-61
2023/04/20 03:49:06;;;;;;;8.15;3.50;;;;;;;;;;5054646;28;20713;-62
2023/04/20 03:51:32;;;;;;;6.10;3.40;;;;;;;;;;5053143;28;20573;-62
2023/04/20 03:53:57;;;;;;;7.25;3.58;;;;;;;;;;5054166;28;20643;-62
2023/04/20 03:56:22;;;;;;;8.38;3.58;;;;;;;;;;5057914;28;20213;-62
2023/04/20 03:58:48;;;;;;;4.90;3.28;;;;;;;;;;5061724;28;20265;-61
2023/04/20 04:01:14;;;;;;;6.03;3.38;;;;;;;;;;5060435;28;20210;-61
2023/04/20 04:03:39;;;;;;;6.28;3.63;;;;;;;;;;5061407;28;20305;-61
2023/04/20 04:06:06;;;;;;;6.85;3.40;;;;;;;;;;5062093;28;20644;-61
2023/04/20 04:08:31;;;;;;;7.20;3.33;;;;;;;;;;5060743;28;20223;-62
2023/04/20 04:10:57;;;;;;;5.57;3.33;;;;;;;;;;5057283;28;20889;-62
2023/04/20 04:13:22;;;;;;;6.30;3.20;;;;;;;;;;5053448;28;20217;-62
2023/04/20 04:15:47;;;;;;;6.03;3.05;;;;;;;;;;5053143;28;20914;-62
2023/04/20 04:18:12;;;;;;;7.18;3.40;;;;;;;;;;5056744;28;20214;-61
2023/04/20 04:20:38;;;;;;;6.35;3.40;;;;;;;;;;5060883;28;20218;-62
2023/04/20 04:23:03;;;;;;;7.35;3.47;;;;;;;;;;5059996;28;20293;-62
2023/04/20 04:25:29;;;;;;;6.15;3.45;;;;;;;;;;5063361;28;20206;-61
2023/04/20 04:27:54;;;;;;;5.65;3.33;;;;;;;;;;5060950;28;20297;-62
2023/04/20 04:30:19;;;;;;;9.15;3.70;;;;;;;;;;5059992;28;20217;-62
2023/04/20 04:32:45;;;;;;;6.55;3.20;;;;;;;;;;5059415;28;20857;-61
2023/04/20 04:35:11;;;;;;;6.57;3.47;;;;;;;;;;5053234;28;20297;-61
2023/04/20 04:37:36;;;;;;;6.15;3.90;;;;;;;;;;5052560;28;20646;-61
2023/04/20 04:40:01;;;;;;;9.02;3.83;;;;;;;;;;5053829;28;20230;-61
2023/04/20 04:42:27;;;;;;;6.13;3.35;;;;;;;;;;5060606;28;20320;-61
2023/04/20 04:44:54;;;;;;;6.53;3.17;;;;;;;;;;5059496;28;20211;-61
2023/04/20 04:47:21;;;;;;;7.82;3.53;;;;;;;;;;5068495;28;20263;-61
2023/04/20 04:49:46;;;;;;;6.95;3.70;;;;;;;;;;5080018;28;20277;-61
2023/04/20 04:52:12;;;;;;;7.80;3.35;;;;;;;;;;5079417;28;20747;-61
2023/04/20 04:54:37;;;;;;;8.45;3.67;;;;;;;;;;5080335;28;20237;-61
2023/04/20 04:57:03;;;;;;;5.22;3.33;;;;;;;;;;5074160;28;20213;-61
2023/04/20 04:59:28;;;;;;;6.72;3.08;;;;;;;;;;5059357;28;20238;-61
2023/04/20 05:01:53;;;;;;;7.30;3.42;;;;;;;;;;5052509;28;20225;-61
2023/04/20 05:04:19;;;;;;;7.25;3.45;;;;;;;;;;5058163;28;20225;-61
2023/04/20 05:06:44;;;;;;;8.07;3.70;;;;;;;;;;5059404;28;20267;-61
2023/04/20 05:09:10;;;;;;;6.57;3.43;;;;;;;;;;5060041;28;20231;-61
2023/04/20 05:11:35;;;;;;;7.30;3.10;;;;;;;;;;5059899;28;20221;-61
2023/04/20 05:14:02;;;;;;;7.57;3.53;;;;;;;;;;5074989;28;20217;-61
2023/04/20 05:16:27;;;;;;;7.03;3.15;;;;;;;;;;5060467;28;20207;-61
2023/04/20 05:18:52;;;;;;;5.80;3.30;;;;;;;;;;5056381;28;20301;-61
2023/04/20 05:21:18;;;;;;;6.20;3.53;;;;;;;;;;5052121;28;20217;-61
2023/04/20 05:23:43;;;;;;;7.32;3.72;;;;;;;;;;5052411;28;20737;-61
2023/04/20 05:26:09;;;;;;;6.88;3.60;;;;;;;;;;5055583;28;20624;-61
2023/04/20 05:28:34;;;;;;;7.38;3.58;;;;;;;;;;5060264;28;20217;-61
2023/04/20 05:31:00;;;;;;;6.93;3.28;;;;;;;;;;5060264;28;20241;-61
2023/04/20 05:33:25;;;;;;;6.72;3.60;;;;;;;;;;5059484;28;20206;-61
2023/04/20 05:35:55;;;;;;;6.63;3.50;;;;;;;;;;5060321;28;20241;-61
2023/04/20 05:38:20;;;;;;;6.40;3.45;;;;;;;;;;5079328;28;20209;-61
2023/04/20 05:40:45;;;;;;;7.00;4.22;;;;;;;;;;5077537;28;20596;-61
2023/04/20 05:43:11;;;;;;;5.97;3.60;;;;;;;;;;5071949;28;20209;-63
2023/04/20 05:45:36;;;;;;;8.85;3.90;;;;;;;;;;5071916;28;20693;-63
2023/04/20 05:48:01;;;;;;;6.65;3.60;;;;;;;;;;5058189;28;20214;-63
2023/04/20 05:50:27;;;;;;;6.53;4.07;;;;;;;;;;5077981;28;20436;-63
2023/04/20 05:52:52;;;;;;;10.33;4.20;;;;;;;;;;5079182;28;20525;-64
2023/04/20 05:55:18;;;;;;;8.05;4.30;;;;;;;;;;5074050;28;20530;-63
2023/04/20 05:57:43;;;;;;;9.75;5.13;;;;;;;;;;5062233;28;20229;-62
2023/04/20 06:00:10;;;;;;;6.82;3.90;;;;;;;;;;5062992;28;20219;-62
2023/04/20 06:02:35;;;;;;;6.78;3.90;;;;;;;;;;5062707;28;20210;-62
2023/04/20 06:05:01;;;;;;;7.25;4.03;;;;;;;;;;5056793;28;20237;-61
2023/04/20 06:07:26;;;;;;;23.60;15.68;;;;;;;;;;5055568;28;20301;-62
2023/04/20 06:09:51;;;;;;;7.65;4.57;;;;;;;;;;5055268;28;20651;-62
2023/04/20 06:12:16;;;;;;;6.97;3.60;;;;;;;;;;5061919;28;20215;-61
2023/04/20 06:14:42;;;;;;;7.40;3.67;;;;;;;;;;5063285;28;20304;-62
2023/04/20 06:17:07;;;;;;;6.85;4.07;;;;;;;;;;5062408;28;20230;-62
2023/04/20 06:19:32;;;;;;;7.35;4.40;;;;;;;;;;5063129;28;20219;-62
2023/04/20 06:21:58;;;;;;;6.90;3.78;;;;;;;;;;5062673;28;20218;-62
2023/04/20 06:24:23;;;;;;;6.25;3.45;;;;;;;;;;5062525;28;20550;-62
2023/04/20 06:26:48;;;;;;;8.07;3.88;;;;;;;;;;5059312;28;20202;-64
2023/04/20 06:29:13;;;;;;;8.70;4.40;;;;;;;;;;5053961;28;20422;-63
2023/04/20 06:31:39;;;;;;;6.67;3.83;;;;;;;;;;5054807;28;20493;-63
2023/04/20 06:34:04;;;;;;;7.18;3.65;;;;;;;;;;5059184;28;20311;-63
2023/04/20 06:36:30;;;;;;;8.50;4.45;;;;;;;;;;5063697;28;20220;-63
2023/04/20 06:38:55;;;;;;;9.73;5.22;;;;;;;;;;5062814;28;20221;-63
2023/04/20 06:41:20;;;;;;;8.63;3.97;;;;;;;;;;5064855;28;20258;-63
2023/04/20 06:43:46;;;;;;;10.15;4.25;;;;;;;;;;5076818;28;20202;-63
2023/04/20 06:46:11;;;;;;;12.65;6.72;;;;;;;;;;5082327;28;20221;-64
2023/04/20 06:48:36;;;;;;;6.82;4.35;;;;;;;;;;5076637;28;20203;-63
2023/04/20 06:51:02;;;;;;;10.25;4.28;;;;;;;;;;5070120;28;20206;-62
2023/04/20 06:53:27;;;;;;;11.80;4.78;;;;;;;;;;5072484;28;20297;-63
2023/04/20 06:55:53;;;;;;;8.50;4.57;;;;;;;;;;5072249;28;20668;-63
2023/04/20 06:58:18;;;;;;;7.13;4.45;;;;;;;;;;5071598;28;20256;-63
2023/04/20 07:00:44;;;;;;;9.55;4.20;;;;;;;;;;5072025;28;20222;-63
2023/04/20 07:03:09;;;;;;;8.40;4.13;;;;;;;;;;5071988;28;20206;-62
2023/04/20 07:05:35;;;;;;;10.07;5.28;;;;;;;;;;5071304;28;20206;-63
2023/04/20 07:08:01;;;;;;;47.77;28.20;;;;;;;;;;5071405;28;20238;-62
2023/04/20 07:10:26;;;;;;;7.43;4.70;;;;;;;;;;5087957;28;20205;-63
2023/04/20 07:12:51;;;;;;;8.27;4.30;;;;;;;;;;5091645;28;20711;-63
2023/04/20 07:15:17;;;;;;;7.35;5.10;;;;;;;;;;5090704;28;20214;-63
2023/04/20 07:17:42;;;;;;;9.05;5.10;;;;;;;;;;5072159;28;20207;-63
2023/04/20 07:20:08;;;;;;;10.93;5.70;;;;;;;;;;5070519;28;20222;-63
2023/04/20 07:22:33;;;;;;;9.73;5.50;;;;;;;;;;5070764;28;20214;-63
2023/04/20 07:25:01;;;;;;;7.70;4.80;;;;;;;;;;5071856;28;20206;-63
2023/04/20 07:27:28;;;;;;;7.93;4.90;;;;;;;;;;5070771;28;20217;-63
2023/04/20 07:29:53;;;;;;;8.20;5.30;;;;;;;;;;5090349;28;20201;-63
2023/04/20 07:32:18;;;;;;;10.10;5.05;;;;;;;;;;5091051;28;20214;-63
2023/04/20 07:34:44;;;;;;;12.00;5.78;;;;;;;;;;5091796;28;20627;-63
2023/04/20 07:37:09;;;;;;;16.02;8.77;;;;;;;;;;5091232;28;20206;-63
2023/04/20 07:39:35;;;;;;;12.32;5.68;;;;;;;;;;5091354;28;20221;-63
2023/04/20 07:42:01;;;;;;;8.63;5.50;;;;;;;;;;5088603;28;20209;-63
2023/04/20 07:44:26;;;;;;;7.65;5.55;;;;;;;;;;5075520;28;20202;-63
2023/04/20 07:46:53;;;;;;;8.52;5.53;;;;;;;;;;5079043;28;20207;-63
2023/04/20 07:49:18;;;;;;;16.88;7.75;;;;;;;;;;5072641;28;20230;-63
2023/04/20 07:51:44;;;;;;;12.38;7.00;;;;;;;;;;5089339;28;20229;-63
2023/04/20 07:54:09;;;;;;;14.45;9.75;;;;;;;;;;5080019;28;20213;-63
2023/04/20 07:56:35;;;;;;;35.95;20.75;;;;;;;;;;5091220;28;20824;-63
2023/04/20 07:59:00;;;;;;;27.60;17.00;;;;;;;;;;5091444;28;20308;-63
2023/04/20 08:01:25;;;;;;;16.40;9.57;;;;;;;;;;5090476;28;20209;-63
2023/04/20 08:03:51;;;;;;;13.77;8.27;;;;;;;;;;5091141;28;20281;-63
2023/04/20 08:06:16;;;;;;;15.07;8.90;;;;;;;;;;5067159;28;20211;-63
2023/04/20 08:08:41;;;;;;;11.80;8.30;;;;;;;;;;5051690;28;20219;-63
2023/04/20 08:11:07;;;;;;;14.27;7.40;;;;;;;;;;5088251;28;20213;-62
2023/04/20 08:13:32;;;;;;;9.95;5.53;;;;;;;;;;5091457;28;20259;-63
2023/04/20 08:15:57;;;;;;;7.87;5.17;;;;;;;;;;5083734;28;20211;-63
2023/04/20 08:18:23;;;;;;;11.45;6.40;;;;;;;;;;5070714;28;20678;-63
2023/04/20 08:20:49;;;;;;;12.77;8.90;;;;;;;;;;5070064;28;20222;-63
2023/04/20 08:23:15;;;;;;;9.20;6.65;;;;;;;;;;5069437;28;20198;-63
2023/04/20 08:25:40;;;;;;;10.77;6.80;;;;;;;;;;5069497;28;20712;-63
2023/04/20 08:28:05;;;;;;;10.23;6.00;;;;;;;;;;5070135;28;20213;-62
2023/04/20 08:30:31;;;;;;;13.35;10.00;;;;;;;;;;5069851;28;20298;-63
2023/04/20 08:32:57;;;;;;;11.77;7.78;;;;;;;;;;5070737;28;20210;-63
2023/04/20 08:35:22;;;;;;;10.93;6.47;;;;;;;;;;5073454;28;20218;-63
2023/04/20 08:37:47;;;;;;;8.40;5.85;;;;;;;;;;5078398;28;20241;-63
2023/04/20 08:40:13;;;;;;;8.43;5.57;;;;;;;;;;5071444;28;20226;-62
2023/04/20 08:42:38;;;;;;;8.23;5.68;;;;;;;;;;5069456;28;20210;-63
2023/04/20 08:45:03;;;;;;;8.15;5.60;;;;;;;;;;5075625;28;20221;-62
2023/04/20 08:47:29;;;;;;;9.38;5.60;;;;;;;;;;5081070;28;20614;-63
2023/04/20 08:49:54;;;;;;;10.00;5.90;;;;;;;;;;5070904;28;20210;-63
2023/04/20 08:52:19;;;;;;;9.43;5.45;;;;;;;;;;5069574;28;20214;-63
2023/04/20 08:54:45;;;;;;;9.25;5.22;;;;;;;;;;5085792;28;20296;-63
2023/04/20 08:57:10;;;;;;;8.45;5.30;;;;;;;;;;5077701;28;20732;-63
2023/04/20 08:59:35;;;;;;;9.95;5.53;;;;;;;;;;5081246;28;20332;-63
2023/04/20 09:02:08;;;;;;;9.45;6.18;;;;;;;;;;5082326;28;20260;-62
2023/04/20 09:04:33;;;;;;;8.43;5.53;;;;;;;;;;5078656;28;20216;-63
2023/04/20 09:06:59;;;;;;;15.40;7.63;;;;;;;;;;5071405;28;20203;-63
2023/04/20 09:09:25;;;;;;;9.43;6.00;;;;;;;;;;5075139;28;20218;-64
2023/04/20 09:12:03;;;;;;;12.63;6.40;;;;;;;;;;5073847;28;20214;-63
2023/04/20 09:14:29;;;;;;;7.32;5.70;;;;;;;;;;5083499;28;20206;-63
2023/04/20 09:16:59;;;;;;;9.90;6.03;;;;;;;;;;5090163;28;20221;-63
2023/04/20 09:19:25;;;;;;;10.90;6.78;;;;;;;;;;5078041;28;20224;-63
2023/04/20 09:21:50;;;;;;;9.20;6.40;;;;;;;;;;5072623;28;20226;-63
2023/04/20 09:24:16;;;;;;;12.48;6.75;;;;;;;;;;5074862;28;20586;-63
2023/04/20 09:26:41;;;;;;;9.07;5.80;;;;;;;;;;5069390;28;20908;-63
2023/04/20 09:29:16;;;;;;;9.00;5.55;;;;;;;;;;5070870;28;20207;-62
2023/04/20 09:31:41;;;;;;;8.68;5.40;;;;;;;;;;5074584;28;20272;-64
2023/04/20 09:34:07;;;;;;;7.93;5.40;;;;;;;;;;5073555;28;20779;-63
2023/04/20 09:36:40;;;;;;;8.27;5.05;;;;;;;;;;5074047;28;20213;-63
2023/04/20 09:39:07;;;;;;;12.10;9.07;;;;;;;;;;5072913;28;20321;-63
2023/04/20 09:41:32;;;;;;;11.18;6.07;;;;;;;;;;5073796;28;20202;-63
2023/04/20 09:43:57;;;;;;;8.65;5.15;;;;;;;;;;5072461;28;20574;-63
2023/04/20 09:46:23;;;;;;;8.07;5.22;;;;;;;;;;5072549;28;20210;-63
2023/04/20 09:48:48;;;;;;;10.52;5.82;;;;;;;;;;5072168;28;20575;-63
2023/04/20 09:51:14;;;;;;;7.55;5.50;;;;;;;;;;5073294;28;20237;-63
2023/04/20 09:53:39;;;;;;;7.65;5.13;;;;;;;;;;5072802;28;20299;-63
2023/04/20 09:56:04;;;;;;;10.75;5.55;;;;;;;;;;5073006;28;20194;-62
2023/04/20 09:58:30;;;;;;;8.35;4.90;;;;;;;;;;5055465;28;20211;-63
2023/04/20 10:00:55;;;;;;;8.70;5.35;;;;;;;;;;5071242;28;20217;-63
2023/04/20 10:03:20;;;;;;;7.78;4.55;;;;;;;;;;5072835;28;20230;-63
2023/04/20 10:05:46;;;;;;;8.82;5.53;;;;;;;;;;5082354;28;20643;-63
2023/04/20 10:08:11;;;;;;;11.20;6.05;;;;;;;;;;5090901;28;20703;-63
2023/04/20 10:10:43;;;;;;;8.20;5.00;;;;;;;;;;5075938;28;20724;-63
2023/04/20 10:13:09;;;;;;;7.55;4.40;;;;;;;;;;5074732;28;20336;-63
2023/04/20 10:15:35;;;;;;;7.20;4.90;;;;;;;;;;5076877;28;20285;-64
2023/04/20 10:18:01;;;;;;;8.25;5.18;;;;;;;;;;5072912;28;20210;-66
2023/04/20 10:20:26;;;;;;;7.82;4.85;;;;;;;;;;5073081;28;20218;-63
2023/04/20 10:22:52;;;;;;;8.35;4.45;;;;;;;;;;5071102;28;20203;-63
2023/04/20 10:25:19;;;;;;;7.82;4.05;;;;;;;;;;5072591;28;20215;-63
2023/04/20 10:27:54;;;;;;;13.90;8.10;;;;;;;;;;5073145;28;20222;-64
2023/04/20 10:30:20;;;;;;;11.82;7.32;;;;;;;;;;5070224;28;20213;-63
2023/04/20 10:32:45;;;;;;;7.40;4.63;;;;;;;;;;5073136;28;20218;-63
2023/04/20 10:35:12;;;;;;;9.10;6.60;;;;;;;;;;5077743;28;20202;-63
2023/04/20 10:37:47;;;;;;;9.15;4.70;;;;;;;;;;5093056;28;20236;-63
2023/04/20 10:40:12;;;;;;;8.13;4.13;;;;;;;;;;5091179;28;20251;-63
2023/04/20 10:42:42;;;;;;;7.20;4.05;;;;;;;;;;5091895;28;20677;-64
2023/04/20 10:45:08;;;;;;;7.90;4.25;;;;;;;;;;5090259;28;20217;-63
2023/04/20 10:47:36;;;;;;;8.15;4.70;;;;;;;;;;5093071;28;20213;-63
2023/04/20 10:50:06;;;;;;;10.65;7.72;;;;;;;;;;5091955;28;20214;-63
2023/04/20 10:52:34;;;;;;;6.60;4.03;;;;;;;;;;5090091;28;20213;-63
2023/04/20 10:55:00;;;;;;;7.88;4.70;;;;;;;;;;5072470;28;20237;-62
2023/04/20 10:57:25;;;;;;;7.25;4.50;;;;;;;;;;5071638;28;20277;-64
2023/04/20 10:59:50;;;;;;;5.75;3.88;;;;;;;;;;5072213;28;20244;-64
2023/04/20 11:02:16;;;;;;;8.48;4.45;;;;;;;;;;5072259;28;20673;-64
2023/04/20 11:04:41;;;;;;;6.45;4.22;;;;;;;;;;5071727;28;20218;-64
2023/04/20 11:07:08;;;;;;;5.97;4.40;;;;;;;;;;5070598;28;20207;-63
2023/04/20 11:09:34;;;;;;;5.50;3.92;;;;;;;;;;5079373;28;20557;-64
2023/04/20 11:12:06;;;;;;;6.75;4.63;;;;;;;;;;5091690;28;20224;-64
2023/04/20 11:14:34;;;;;;;8.77;4.40;;;;;;;;;;5092017;28;20858;-64
2023/04/20 11:16:59;;;;;;;7.25;4.57;;;;;;;;;;5075728;28;20290;-64
2023/04/20 11:19:28;;;;;;;6.78;4.30;;;;;;;;;;5069455;28;20761;-64
2023/04/20 11:21:54;;;;;;;7.75;4.22;;;;;;;;;;5070868;28;20238;-64
2023/04/20 11:24:20;;;;;;;6.53;4.47;;;;;;;;;;5071059;28;20202;-64
2023/04/20 11:26:47;;;;;;;7.72;4.90;;;;;;;;;;5071703;28;20210;-64
2023/04/20 11:29:12;;;;;;;7.38;4.60;;;;;;;;;;5069965;28;20306;-64
2023/04/20 11:31:38;;;;;;;7.63;5.10;;;;;;;;;;5071196;28;20666;-64
2023/04/20 11:34:03;;;;;;;8.98;4.60;;;;;;;;;;5071315;28;20210;-63
2023/04/20 11:36:28;;;;;;;8.90;4.47;;;;;;;;;;5071884;28;20210;-64
2023/04/20 11:38:54;;;;;;;8.63;4.75;;;;;;;;;;5069808;28;20202;-64
2023/04/20 11:41:20;;;;;;;9.27;4.88;;;;;;;;;;5069531;28;20214;-64
2023/04/20 11:43:45;;;;;;;9.27;5.07;;;;;;;;;;5071561;28;20636;-64
2023/04/20 11:46:13;;;;;;;8.18;4.93;;;;;;;;;;5070266;28;20280;-64
2023/04/20 11:48:38;;;;;;;6.88;4.90;;;;;;;;;;5071454;28;20576;-64
2023/04/20 11:51:04;;;;;;;6.55;4.68;;;;;;;;;;5070107;28;20221;-64
2023/04/20 11:53:29;;;;;;;7.82;5.13;;;;;;;;;;5079951;28;20218;-64
2023/04/20 11:55:54;;;;;;;6.97;5.05;;;;;;;;;;5091691;28;20197;-64
2023/04/20 11:58:20;;;;;;;7.07;5.20;;;;;;;;;;5091156;28;20258;-64
2023/04/20 12:00:45;;;;;;;7.13;4.82;;;;;;;;;;5090282;28;20632;-64
2023/04/20 12:03:10;;;;;;;8.27;4.97;;;;;;;;;;5091402;28;20295;-64
2023/04/20 12:05:36;;;;;;;6.95;5.00;;;;;;;;;;5084041;28;20214;-64
2023/04/20 12:08:01;;;;;;;6.80;5.28;;;;;;;;;;5069977;28;20226;-63
2023/04/20 12:10:26;;;;;;;8.43;5.20;;;;;;;;;;5087186;28;20677;-63
2023/04/20 12:12:52;;;;;;;10.48;5.60;;;;;;;;;;5091170;28;20741;-64
2023/04/20 12:15:17;;;;;;;8.38;5.25;;;;;;;;;;5088784;28;20218;-64
2023/04/20 12:17:43;;;;;;;6.70;5.38;;;;;;;;;;5070818;28;20210;-64
2023/04/20 12:20:10;;;;;;;7.65;5.55;;;;;;;;;;5070310;28;20218;-64
2023/04/20 12:22:36;;;;;;;8.20;5.72;;;;;;;;;;5068917;28;20210;-64
2023/04/20 12:25:01;;;;;;;7.57;5.50;;;;;;;;;;5069084;28;20217;-63
2023/04/20 12:27:26;;;;;;;7.95;5.25;;;;;;;;;;5070743;28;20211;-63
2023/04/20 12:29:52;;;;;;;7.95;5.25;;;;;;;;;;5069806;28;20610;-64
2023/04/20 12:32:17;;;;;;;9.18;5.28;;;;;;;;;;5068860;28;20203;-63
2023/04/20 12:34:42;;;;;;;6.97;4.95;;;;;;;;;;5070056;28;20213;-64
2023/04/20 12:37:08;;;;;;;8.45;5.68;;;;;;;;;;5069031;28;20614;-63
2023/04/20 12:39:33;;;;;;;8.45;5.18;;;;;;;;;;5070678;28;20293;-64
2023/04/20 12:41:59;;;;;;;6.90;5.13;;;;;;;;;;5069858;28;20577;-64
2023/04/20 12:44:24;;;;;;;6.65;4.95;;;;;;;;;;5075935;28;20213;-63
2023/04/20 12:46:49;;;;;;;8.15;5.65;;;;;;;;;;5069155;28;20285;-64
2023/04/20 12:49:14;;;;;;;9.40;5.78;;;;;;;;;;5069721;28;20782;-63
2023/04/20 12:51:40;;;;;;;9.35;5.40;;;;;;;;;;5070373;28;20206;-63
2023/04/20 12:54:05;;;;;;;7.28;5.22;;;;;;;;;;5071497;28;20209;-63
2023/04/20 12:56:30;;;;;;;7.05;5.22;;;;;;;;;;5069741;28;20206;-63
2023/04/20 12:58:56;;;;;;;8.55;5.88;;;;;;;;;;5069843;28;20298;-64
2023/04/20 13:01:21;;;;;;;6.72;5.65;;;;;;;;;;5069877;28;20211;-64
2023/04/20 13:03:46;;;;;;;7.22;5.55;;;;;;;;;;5069686;28;20206;-63
2023/04/20 13:06:11;;;;;;;8.45;5.43;;;;;;;;;;5081568;28;20206;-63
2023/04/20 13:08:37;;;;;;;9.73;5.68;;;;;;;;;;5089552;28;20701;-64
2023/04/20 13:11:02;;;;;;;8.57;5.70;;;;;;;;;;5069085;28;20210;-63
2023/04/20 13:13:28;;;;;;;7.20;5.15;;;;;;;;;;5069979;28;20210;-63
2023/04/20 13:15:53;;;;;;;8.20;5.47;;;;;;;;;;5075958;28;20202;-63
2023/04/20 13:18:19;;;;;;;9.77;5.75;;;;;;;;;;5089092;28;20213;-63
2023/04/20 13:20:44;;;;;;;9.07;5.97;;;;;;;;;;5088940;28;20237;-64
2023/04/20 13:23:10;;;;;;;9.25;5.63;;;;;;;;;;5088539;28;20232;-64
2023/04/20 13:25:37;;;;;;;7.97;5.53;;;;;;;;;;5088175;28;20198;-65
2023/04/20 13:28:03;;;;;;;7.53;5.30;;;;;;;;;;5069199;28;20210;-64
2023/04/20 13:30:29;;;;;;;8.55;5.60;;;;;;;;;;5068652;28;20658;-65
2023/04/20 13:32:54;;;;;;;8.50;6.32;;;;;;;;;;5068008;28;20209;-65
2023/04/20 13:35:20;;;;;;;8.70;5.60;;;;;;;;;;5069558;28;20213;-65
2023/04/20 13:37:45;;;;;;;8.20;6.03;;;;;;;;;;5070044;28;20697;-65
2023/04/20 13:40:10;;;;;;;9.32;5.90;;;;;;;;;;5068671;28;20232;-67
2023/04/20 13:42:36;;;;;;;9.15;5.75;;;;;;;;;;5069820;28;20214;-65
2023/04/20 13:45:02;;;;;;;7.88;6.07;;;;;;;;;;5068600;28;20213;-63
2023/04/20 13:47:27;;;;;;;10.55;6.40;;;;;;;;;;5068423;28;20210;-67
2023/04/20 13:49:52;;;;;;;8.15;5.82;;;;;;;;;;5069800;28;20301;-64
2023/04/20 13:52:18;;;;;;;9.98;6.30;;;;;;;;;;5069008;28;20438;-63
2023/04/20 13:54:43;;;;;;;10.27;6.38;;;;;;;;;;5069575;28;20608;-63
2023/04/20 13:57:08;;;;;;;10.52;6.18;;;;;;;;;;5078724;28;20222;-63
2023/04/20 13:59:34;;;;;;;7.03;5.75;;;;;;;;;;5065369;28;20222;-63
2023/04/20 14:01:59;;;;;;;7.75;5.93;;;;;;;;;;5075528;28;20424;-63
2023/04/20 14:04:24;;;;;;;7.43;6.00;;;;;;;;;;5077041;28;20852;-63
2023/04/20 14:06:51;;;;;;;8.00;5.90;;;;;;;;;;5075555;28;20680;-64
2023/04/20 14:09:16;;;;;;;8.68;6.68;;;;;;;;;;5075912;28;20313;-63
2023/04/20 14:11:42;;;;;;;7.85;6.05;;;;;;;;;;5062551;28;20214;-64
2023/04/20 14:14:07;;;;;;;9.35;7.05;;;;;;;;;;5062364;28;20289;-63
2023/04/20 14:16:40;;;;;;;10.60;6.30;;;;;;;;;;5062887;28;20324;-63
2023/04/20 14:19:06;;;;;;;8.45;6.15;;;;;;;;;;5084065;28;20707;-63
2023/04/20 14:21:31;;;;;;;8.50;6.32;;;;;;;;;;5062724;28;20214;-64
2023/04/20 14:23:57;;;;;;;11.00;7.57;;;;;;;;;;5060086;28;20206;-64
2023/04/20 14:26:22;;;;;;;9.82;6.00;;;;;;;;;;5060444;28;20233;-64
2023/04/20 14:28:48;;;;;;;7.60;6.20;;;;;;;;;;5064658;28;20210;-64
2023/04/20 14:31:13;;;;;;;8.52;6.20;;;;;;;;;;5065580;28;20797;-64